sensor_id;sensor_type;location;lat;lon;timestamp;temperature;humidity
7512;DHT22;9999;48.780;9.146;2022-12-07T00:01:21;3.70;99.90
7512;DHT22;9999;48.780;9.146;2022-12-07T00:03:52;3.70;99.90
7512;DHT22;9999;48.780;9.146;2022-12-07T00:06:20;3.80;99.90
7512;DHT22;9999;48.780;9.146;2022-12-07T00:08:47;3.70;99.90
7512;DHT22;9999;48.780;9.146;2022-12-07T00:11:16;3.70;99.90
7512;DHT22;9999;48.780;9.146;2022-12-07T00:13:44;3.70;99.90
7512;DHT22;9999;48.780;9.146;2022-12-07T00:16:14;3.80;99.90
7512;DHT22;9999;48.780;9.146;2022-12-07T00:18:41;3.70;99.90
7512;DHT22;9999;48.780;9.146;2022-12-07T00:21:11;3.70;99.90
7512;DHT22;9999;48.780;9.146;2022-12-07T00:23:39;3.80;99.90
7512;DHT22;9999;48.780;9.146;2022-12-07T00:26:06;3.70;99.90
7512;DHT22;9999;48.780;9.146;2022-12-07T00:28:34;3.80;99.90
7512;DHT22;9999;48.780;9.146;2022-12-07T00:31:03;3.70;99.90
7512;DHT22;9999;48.780;9.146;2022-12-07T00:33:30;3.80;99.90
7512;DHT22;9999;48.780;9.146;2022-12-07T00:35:58;3.80;99.90
7512;DHT22;9999;48.780;9.146;2022-12-07T00:38:28;3.60;99.90
7512;DHT22;9999;48.780;9.146;2022-12-07T00:41:00;3.60;99.90
7512;DHT22;9999;48.780;9.146;2022-12-07T00:43:28;3.60;99.90
7512;DHT22;9999;48.780;9.146;2022-12-07T00:45:55;3.60;99.90
7512;DHT22;9999;48.780;9.146;2022-12-07T00:48:23;3.60;99.90
7512;DHT22;9999;48.780;9.146;2022-12-07T00:50:50;3.70;99.90
7512;DHT22;9999;48.780;9.146;2022-12-07T00:53:17;3.60;99.90
7512;DHT22;9999;48.780;9.146;2022-12-07T00:55:46;3.70;99.90
7512;DHT22;9999;48.780;9.146;2022-12-07T00:58:12;3.70;99.90
7512;DHT22;9999;48.780;9.146;2022-12-07T01:00:40;3.60;99.90
7512;DHT22;9999;48.780;9.146;2022-12-07T01:03:09;3.70;99.90
7512;DHT22;9999;48.780;9.146;2022-12-07T01:05:37;3.70;99.90
7512;DHT22;9999;48.780;9.146;2022-12-07T01:08:05;3.70;99.90
7512;DHT22;9999;48.780;9.146;2022-12-07T01:10:32;3.60;99.90
7512;DHT22;9999;48.780;9.146;2022-12-07T01:13:00;3.60;99.90
7512;DHT22;9999;48.780;9.146;2022-12-07T01:15:27;3.70;99.90
7512;DHT22;9999;48.780;9.146;2022-12-07T01:17:54;3.60;99.90
7512;DHT22;9999;48.780;9.146;2022-12-07T01:20:21;3.70;99.90
7512;DHT22;9999;48.780;9.146;2022-12-07T01:22:48;3.60;99.90
7512;DHT22;9999;48.780;9.146;2022-12-07T01:25:14;3.70;99.90
7512;DHT22;9999;48.780;9.146;2022-12-07T01:27:41;3.70;99.90
7512;DHT22;9999;48.780;9.146;2022-12-07T01:30:12;3.70;99.90
7512;DHT22;9999;48.780;9.146;2022-12-07T01:32:39;3.70;99.90
7512;DHT22;9999;48.780;9.146;2022-12-07T01:35:06;3.70;99.90
7512;DHT22;9999;48.780;9.146;2022-12-07T01:37:35;3.70;99.90
7512;DHT22;9999;48.780;9.146;2022-12-07T01:40:03;3.70;99.90
7512;DHT22;9999;48.780;9.146;2022-12-07T01:42:30;3.60;99.90
7512;DHT22;9999;48.780;9.146;2022-12-07T01:45:37;3.70;99.90
7512;DHT22;9999;48.780;9.146;2022-12-07T01:48:05;3.70;99.90
7512;DHT22;9999;48.780;9.146;2022-12-07T01:50:34;3.60;99.90
7512;DHT22;9999;48.780;9.146;2022-12-07T01:53:04;3.60;99.90
7512;DHT22;9999;48.780;9.146;2022-12-07T01:55:34;3.60;99.90
7512;DHT22;9999;48.780;9.146;2022-12-07T01:58:01;3.50;99.90
7512;DHT22;9999;48.780;9.146;2022-12-07T02:00:28;3.60;99.90
7512;DHT22;9999;48.780;9.146;2022-12-07T02:03:01;3.60;99.90
7512;DHT22;9999;48.780;9.146;2022-12-07T02:05:30;3.60;99.90
7512;DHT22;9999;48.780;9.146;2022-12-07T02:07:58;3.60;99.90
7512;DHT22;9999;48.780;9.146;2022-12-07T02:10:27;3.60;99.90
7512;DHT22;9999;48.780;9.146;2022-12-07T02:12:56;3.50;99.90
7512;DHT22;9999;48.780;9.146;2022-12-07T02:15:28;3.50;99.90
7512;DHT22;9999;48.780;9.146;2022-12-07T02:18:07;3.50;99.90
7512;DHT22;9999;48.780;9.146;2022-12-07T02:20:39;3.40;99.90
7512;DHT22;9999;48.780;9.146;2022-12-07T02:23:35;3.50;99.90
7512;DHT22;9999;48.780;9.146;2022-12-07T02:29:21;3.70;99.90
7512;DHT22;9999;48.780;9.146;2022-12-07T02:31:56;3.70;99.90
7512;DHT22;9999;48.780;9.146;2022-12-07T02:34:33;3.60;99.90
7512;DHT22;9999;48.780;9.146;2022-12-07T02:37:10;3.50;99.90
7512;DHT22;9999;48.780;9.146;2022-12-07T02:39:43;3.60;99.90
7512;DHT22;9999;48.780;9.146;2022-12-07T02:42:15;3.60;99.90
7512;DHT22;9999;48.780;9.146;2022-12-07T02:44:46;3.60;99.90
7512;DHT22;9999;48.780;9.146;2022-12-07T02:47:15;3.60;99.90
7512;DHT22;9999;48.780;9.146;2022-12-07T02:49:44;3.50;99.90
7512;DHT22;9999;48.780;9.146;2022-12-07T02:52:11;3.50;99.90
7512;DHT22;9999;48.780;9.146;2022-12-07T02:54:38;3.60;99.90
7512;DHT22;9999;48.780;9.146;2022-12-07T02:57:15;3.50;99.90
7512;DHT22;9999;48.780;9.146;2022-12-07T02:59:57;3.60;99.90
7512;DHT22;9999;48.780;9.146;2022-12-07T03:02:31;3.50;99.90
7512;DHT22;9999;48.780;9.146;2022-12-07T03:05:12;3.30;99.90
7512;DHT22;9999;48.780;9.146;2022-12-07T03:07:50;3.20;99.90
7512;DHT22;9999;48.780;9.146;2022-12-07T03:10:24;3.30;99.90
7512;DHT22;9999;48.780;9.146;2022-12-07T03:13:02;3.30;99.90
7512;DHT22;9999;48.780;9.146;2022-12-07T03:15:34;3.30;99.90
7512;DHT22;9999;48.780;9.146;2022-12-07T03:18:03;3.40;99.90
7512;DHT22;9999;48.780;9.146;2022-12-07T03:20:31;3.40;99.90
7512;DHT22;9999;48.780;9.146;2022-12-07T03:22:59;3.30;99.90
7512;DHT22;9999;48.780;9.146;2022-12-07T03:25:26;3.30;99.90
7512;DHT22;9999;48.780;9.146;2022-12-07T03:27:57;3.30;99.90
7512;DHT22;9999;48.780;9.146;2022-12-07T03:30:28;3.40;99.90
7512;DHT22;9999;48.780;9.146;2022-12-07T03:33:01;3.30;99.90
7512;DHT22;9999;48.780;9.146;2022-12-07T03:35:33;3.20;99.90
7512;DHT22;9999;48.780;9.146;2022-12-07T03:38:07;3.20;99.90
7512;DHT22;9999;48.780;9.146;2022-12-07T03:40:39;3.10;99.90
7512;DHT22;9999;48.780;9.146;2022-12-07T03:43:07;3.20;99.90
7512;DHT22;9999;48.780;9.146;2022-12-07T03:45:38;3.20;99.90
7512;DHT22;9999;48.780;9.146;2022-12-07T03:48:10;3.30;99.90
7512;DHT22;9999;48.780;9.146;2022-12-07T03:50:45;3.30;99.90
7512;DHT22;9999;48.780;9.146;2022-12-07T03:53:18;3.20;99.90
7512;DHT22;9999;48.780;9.146;2022-12-07T03:55:47;3.40;99.90
7512;DHT22;9999;48.780;9.146;2022-12-07T03:58:17;3.30;99.90
7512;DHT22;9999;48.780;9.146;2022-12-07T04:00:45;3.30;99.90
7512;DHT22;9999;48.780;9.146;2022-12-07T04:03:13;3.30;99.90
7512;DHT22;9999;48.780;9.146;2022-12-07T04:05:40;3.20;99.90
7512;DHT22;9999;48.780;9.146;2022-12-07T04:08:09;3.20;99.90
7512;DHT22;9999;48.780;9.146;2022-12-07T04:10:36;3.00;99.90
7512;DHT22;9999;48.780;9.146;2022-12-07T04:13:03;3.10;99.90
7512;DHT22;9999;48.780;9.146;2022-12-07T04:15:29;3.00;99.90
7512;DHT22;9999;48.780;9.146;2022-12-07T04:17:56;2.90;99.90
7512;DHT22;9999;48.780;9.146;2022-12-07T04:20:24;2.90;99.90
7512;DHT22;9999;48.780;9.146;2022-12-07T04:22:51;2.80;99.90
7512;DHT22;9999;48.780;9.146;2022-12-07T04:25:18;2.80;99.90
7512;DHT22;9999;48.780;9.146;2022-12-07T04:27:45;2.80;99.90
7512;DHT22;9999;48.780;9.146;2022-12-07T04:30:12;2.80;99.90
7512;DHT22;9999;48.780;9.146;2022-12-07T04:32:39;2.80;99.90
7512;DHT22;9999;48.780;9.146;2022-12-07T04:35:07;2.80;99.90
7512;DHT22;9999;48.780;9.146;2022-12-07T04:37:35;2.70;99.90
7512;DHT22;9999;48.780;9.146;2022-12-07T04:40:06;2.70;99.90
7512;DHT22;9999;48.780;9.146;2022-12-07T04:42:34;2.60;99.90
7512;DHT22;9999;48.780;9.146;2022-12-07T04:45:00;2.70;99.90
7512;DHT22;9999;48.780;9.146;2022-12-07T04:47:27;2.70;99.90
7512;DHT22;9999;48.780;9.146;2022-12-07T04:49:54;2.70;99.90
7512;DHT22;9999;48.780;9.146;2022-12-07T04:52:21;2.70;99.90
7512;DHT22;9999;48.780;9.146;2022-12-07T04:54:49;2.60;99.90
7512;DHT22;9999;48.780;9.146;2022-12-07T04:57:16;2.70;99.90
7512;DHT22;9999;48.780;9.146;2022-12-07T04:59:43;2.60;99.90
7512;DHT22;9999;48.780;9.146;2022-12-07T05:02:09;2.70;99.90
7512;DHT22;9999;48.780;9.146;2022-12-07T05:04:36;2.70;99.90
7512;DHT22;9999;48.780;9.146;2022-12-07T05:07:03;2.70;99.90
7512;DHT22;9999;48.780;9.146;2022-12-07T05:09:30;2.60;99.90
7512;DHT22;9999;48.780;9.146;2022-12-07T05:11:58;2.60;99.90
7512;DHT22;9999;48.780;9.146;2022-12-07T05:14:25;2.70;99.90
7512;DHT22;9999;48.780;9.146;2022-12-07T05:16:51;2.70;99.90
7512;DHT22;9999;48.780;9.146;2022-12-07T05:19:19;2.70;99.90
7512;DHT22;9999;48.780;9.146;2022-12-07T05:21:46;2.70;99.90
7512;DHT22;9999;48.780;9.146;2022-12-07T05:24:14;2.70;99.90
7512;DHT22;9999;48.780;9.146;2022-12-07T05:26:41;2.70;99.90
7512;DHT22;9999;48.780;9.146;2022-12-07T05:29:12;2.70;99.90
7512;DHT22;9999;48.780;9.146;2022-12-07T05:31:39;2.60;99.90
7512;DHT22;9999;48.780;9.146;2022-12-07T05:34:06;2.60;99.90
7512;DHT22;9999;48.780;9.146;2022-12-07T05:36:32;2.60;99.90
7512;DHT22;9999;48.780;9.146;2022-12-07T05:38:59;2.50;99.90
7512;DHT22;9999;48.780;9.146;2022-12-07T05:41:26;2.40;99.90
7512;DHT22;9999;48.780;9.146;2022-12-07T05:44:12;2.40;99.90
7512;DHT22;9999;48.780;9.146;2022-12-07T05:46:39;2.40;99.90
7512;DHT22;9999;48.780;9.146;2022-12-07T05:49:05;2.30;99.90
7512;DHT22;9999;48.780;9.146;2022-12-07T05:51:32;2.40;99.90
7512;DHT22;9999;48.780;9.146;2022-12-07T05:53:59;2.40;99.90
7512;DHT22;9999;48.780;9.146;2022-12-07T05:56:26;2.40;99.90
7512;DHT22;9999;48.780;9.146;2022-12-07T05:58:53;2.30;99.90
7512;DHT22;9999;48.780;9.146;2022-12-07T06:01:39;2.30;99.90
7512;DHT22;9999;48.780;9.146;2022-12-07T06:04:06;2.30;99.90
7512;DHT22;9999;48.780;9.146;2022-12-07T06:06:32;2.30;99.90
7512;DHT22;9999;48.780;9.146;2022-12-07T06:08:59;2.30;99.90
7512;DHT22;9999;48.780;9.146;2022-12-07T06:11:26;2.30;99.90
7512;DHT22;9999;48.780;9.146;2022-12-07T06:14:10;2.40;99.90
7512;DHT22;9999;48.780;9.146;2022-12-07T06:16:39;2.40;99.90
7512;DHT22;9999;48.780;9.146;2022-12-07T06:19:05;2.40;99.90
7512;DHT22;9999;48.780;9.146;2022-12-07T06:21:32;2.40;99.90
7512;DHT22;9999;48.780;9.146;2022-12-07T06:23:59;2.60;99.90
7512;DHT22;9999;48.780;9.146;2022-12-07T06:26:26;2.50;99.90
7512;DHT22;9999;48.780;9.146;2022-12-07T06:28:52;2.50;99.90
7512;DHT22;9999;48.780;9.146;2022-12-07T06:31:19;2.50;99.90
7512;DHT22;9999;48.780;9.146;2022-12-07T06:33:47;2.40;99.90
7512;DHT22;9999;48.780;9.146;2022-12-07T06:36:14;2.30;99.90
7512;DHT22;9999;48.780;9.146;2022-12-07T06:38:41;2.40;99.90
7512;DHT22;9999;48.780;9.146;2022-12-07T06:41:08;2.50;99.90
7512;DHT22;9999;48.780;9.146;2022-12-07T06:43:35;2.50;99.90
7512;DHT22;9999;48.780;9.146;2022-12-07T06:46:01;2.50;99.90
7512;DHT22;9999;48.780;9.146;2022-12-07T06:48:28;2.40;99.90
7512;DHT22;9999;48.780;9.146;2022-12-07T06:50:56;2.40;99.90
7512;DHT22;9999;48.780;9.146;2022-12-07T06:53:23;2.40;99.90
7512;DHT22;9999;48.780;9.146;2022-12-07T06:55:50;2.40;99.90
7512;DHT22;9999;48.780;9.146;2022-12-07T06:58:17;2.50;99.90
7512;DHT22;9999;48.780;9.146;2022-12-07T07:00:44;2.40;99.90
7512;DHT22;9999;48.780;9.146;2022-12-07T07:03:11;2.50;99.90
7512;DHT22;9999;48.780;9.146;2022-12-07T07:05:38;2.50;99.90
7512;DHT22;9999;48.780;9.146;2022-12-07T07:08:06;2.40;99.90
7512;DHT22;9999;48.780;9.146;2022-12-07T07:10:33;2.30;99.90
7512;DHT22;9999;48.780;9.146;2022-12-07T07:13:00;2.30;99.90
7512;DHT22;9999;48.780;9.146;2022-12-07T07:15:27;2.30;99.90
7512;DHT22;9999;48.780;9.146;2022-12-07T07:17:54;2.30;99.90
7512;DHT22;9999;48.780;9.146;2022-12-07T07:20:21;2.40;99.90
7512;DHT22;9999;48.780;9.146;2022-12-07T07:22:49;2.40;99.90
7512;DHT22;9999;48.780;9.146;2022-12-07T07:25:17;2.40;99.90
7512;DHT22;9999;48.780;9.146;2022-12-07T07:27:44;2.40;99.90
7512;DHT22;9999;48.780;9.146;2022-12-07T07:30:11;2.40;99.90
7512;DHT22;9999;48.780;9.146;2022-12-07T07:32:38;2.40;99.90
7512;DHT22;9999;48.780;9.146;2022-12-07T07:35:06;2.40;99.90
7512;DHT22;9999;48.780;9.146;2022-12-07T07:37:32;2.40;99.90
7512;DHT22;9999;48.780;9.146;2022-12-07T07:39:59;2.50;99.90
7512;DHT22;9999;48.780;9.146;2022-12-07T07:42:27;2.50;99.90
7512;DHT22;9999;48.780;9.146;2022-12-07T07:44:54;2.50;99.90
7512;DHT22;9999;48.780;9.146;2022-12-07T07:47:21;2.50;99.90
7512;DHT22;9999;48.780;9.146;2022-12-07T07:49:48;2.50;99.90
7512;DHT22;9999;48.780;9.146;2022-12-07T07:52:14;2.50;99.90
7512;DHT22;9999;48.780;9.146;2022-12-07T07:54:41;2.60;99.90
7512;DHT22;9999;48.780;9.146;2022-12-07T07:57:08;2.50;99.90
7512;DHT22;9999;48.780;9.146;2022-12-07T07:59:36;2.40;99.90
7512;DHT22;9999;48.780;9.146;2022-12-07T08:02:03;2.50;99.90
7512;DHT22;9999;48.780;9.146;2022-12-07T08:04:30;2.50;99.90
7512;DHT22;9999;48.780;9.146;2022-12-07T08:06:57;2.50;99.90
7512;DHT22;9999;48.780;9.146;2022-12-07T08:09:23;2.40;99.90
7512;DHT22;9999;48.780;9.146;2022-12-07T08:11:50;2.50;99.90
7512;DHT22;9999;48.780;9.146;2022-12-07T08:14:17;2.50;99.90
7512;DHT22;9999;48.780;9.146;2022-12-07T08:16:45;2.50;99.90
7512;DHT22;9999;48.780;9.146;2022-12-07T08:19:12;2.50;99.90
7512;DHT22;9999;48.780;9.146;2022-12-07T08:21:39;2.60;99.90
7512;DHT22;9999;48.780;9.146;2022-12-07T08:24:06;2.60;99.90
7512;DHT22;9999;48.780;9.146;2022-12-07T08:26:33;2.60;99.90
7512;DHT22;9999;48.780;9.146;2022-12-07T08:29:00;2.60;99.90
7512;DHT22;9999;48.780;9.146;2022-12-07T08:31:27;2.70;99.90
7512;DHT22;9999;48.780;9.146;2022-12-07T08:33:55;2.80;99.90
7512;DHT22;9999;48.780;9.146;2022-12-07T08:36:22;2.80;99.90
7512;DHT22;9999;48.780;9.146;2022-12-07T08:38:49;2.90;99.90
7512;DHT22;9999;48.780;9.146;2022-12-07T08:41:16;2.90;99.90
7512;DHT22;9999;48.780;9.146;2022-12-07T08:43:43;3.00;99.90
7512;DHT22;9999;48.780;9.146;2022-12-07T08:46:19;3.00;99.90
7512;DHT22;9999;48.780;9.146;2022-12-07T08:48:49;3.10;99.90
7512;DHT22;9999;48.780;9.146;2022-12-07T08:51:21;3.10;99.90
7512;DHT22;9999;48.780;9.146;2022-12-07T08:53:49;3.10;99.90
7512;DHT22;9999;48.780;9.146;2022-12-07T08:56:16;3.10;99.90
7512;DHT22;9999;48.780;9.146;2022-12-07T08:58:43;3.20;99.90
7512;DHT22;9999;48.780;9.146;2022-12-07T09:01:10;3.20;99.90
7512;DHT22;9999;48.780;9.146;2022-12-07T09:03:37;3.30;99.90
7512;DHT22;9999;48.780;9.146;2022-12-07T09:06:05;3.30;99.90
7512;DHT22;9999;48.780;9.146;2022-12-07T09:08:36;3.40;99.90
7512;DHT22;9999;48.780;9.146;2022-12-07T09:11:05;3.40;99.90
7512;DHT22;9999;48.780;9.146;2022-12-07T09:13:32;3.40;99.90
7512;DHT22;9999;48.780;9.146;2022-12-07T09:15:59;3.30;99.90
7512;DHT22;9999;48.780;9.146;2022-12-07T09:18:26;3.40;99.90
7512;DHT22;9999;48.780;9.146;2022-12-07T09:20:53;3.50;99.90
7512;DHT22;9999;48.780;9.146;2022-12-07T09:23:20;3.60;99.90
7512;DHT22;9999;48.780;9.146;2022-12-07T09:25:48;3.60;99.90
7512;DHT22;9999;48.780;9.146;2022-12-07T09:28:14;3.60;99.90
7512;DHT22;9999;48.780;9.146;2022-12-07T09:30:45;3.70;99.90
7512;DHT22;9999;48.780;9.146;2022-12-07T09:33:12;3.80;99.90
7512;DHT22;9999;48.780;9.146;2022-12-07T09:35:44;3.80;99.90
7512;DHT22;9999;48.780;9.146;2022-12-07T09:38:11;3.80;99.90
7512;DHT22;9999;48.780;9.146;2022-12-07T09:40:38;3.90;99.90
7512;DHT22;9999;48.780;9.146;2022-12-07T09:43:12;3.90;99.90
7512;DHT22;9999;48.780;9.146;2022-12-07T09:45:40;3.90;99.90
7512;DHT22;9999;48.780;9.146;2022-12-07T09:48:16;4.00;99.90
7512;DHT22;9999;48.780;9.146;2022-12-07T09:50:44;4.00;99.90
7512;DHT22;9999;48.780;9.146;2022-12-07T09:53:15;4.00;99.90
7512;DHT22;9999;48.780;9.146;2022-12-07T09:55:43;4.10;99.90
7512;DHT22;9999;48.780;9.146;2022-12-07T09:58:15;4.10;99.90
7512;DHT22;9999;48.780;9.146;2022-12-07T10:00:44;4.10;99.90
7512;DHT22;9999;48.780;9.146;2022-12-07T10:03:11;4.10;99.90
7512;DHT22;9999;48.780;9.146;2022-12-07T10:05:42;4.20;99.90
7512;DHT22;9999;48.780;9.146;2022-12-07T10:08:10;4.20;99.90
7512;DHT22;9999;48.780;9.146;2022-12-07T10:10:38;4.20;99.90
7512;DHT22;9999;48.780;9.146;2022-12-07T10:13:06;4.10;99.90
7512;DHT22;9999;48.780;9.146;2022-12-07T10:15:53;4.20;99.90
7512;DHT22;9999;48.780;9.146;2022-12-07T10:18:26;4.10;99.90
7512;DHT22;9999;48.780;9.146;2022-12-07T10:21:02;4.20;99.90
7512;DHT22;9999;48.780;9.146;2022-12-07T10:23:29;4.10;99.90
7512;DHT22;9999;48.780;9.146;2022-12-07T10:25:56;4.30;99.90
7512;DHT22;9999;48.780;9.146;2022-12-07T10:28:23;4.30;99.90
7512;DHT22;9999;48.780;9.146;2022-12-07T10:30:55;4.40;99.90
7512;DHT22;9999;48.780;9.146;2022-12-07T10:33:29;4.40;99.90
7512;DHT22;9999;48.780;9.146;2022-12-07T10:35:57;4.50;99.90
7512;DHT22;9999;48.780;9.146;2022-12-07T10:38:24;4.60;99.90
7512;DHT22;9999;48.780;9.146;2022-12-07T10:41:03;4.60;99.90
7512;DHT22;9999;48.780;9.146;2022-12-07T10:43:30;4.60;99.90
7512;DHT22;9999;48.780;9.146;2022-12-07T10:46:20;4.70;99.90
7512;DHT22;9999;48.780;9.146;2022-12-07T10:48:57;4.70;99.90
7512;DHT22;9999;48.780;9.146;2022-12-07T10:51:34;4.70;99.90
7512;DHT22;9999;48.780;9.146;2022-12-07T10:54:10;4.70;99.90
7512;DHT22;9999;48.780;9.146;2022-12-07T10:56:52;4.60;99.90
7512;DHT22;9999;48.780;9.146;2022-12-07T11:02:56;4.60;99.90
7512;DHT22;9999;48.780;9.146;2022-12-07T11:05:29;4.60;99.90
7512;DHT22;9999;48.780;9.146;2022-12-07T11:08:04;4.60;99.90
7512;DHT22;9999;48.780;9.146;2022-12-07T11:10:40;4.60;99.90
7512;DHT22;9999;48.780;9.146;2022-12-07T11:13:24;4.70;99.90
7512;DHT22;9999;48.780;9.146;2022-12-07T11:16:16;4.70;99.90
7512;DHT22;9999;48.780;9.146;2022-12-07T11:21:42;4.70;99.90
7512;DHT22;9999;48.780;9.146;2022-12-07T11:24:15;4.70;99.90
7512;DHT22;9999;48.780;9.146;2022-12-07T11:26:56;4.50;99.90
7512;DHT22;9999;48.780;9.146;2022-12-07T11:29:59;4.50;99.90
7512;DHT22;9999;48.780;9.146;2022-12-07T11:32:43;4.50;99.90
7512;DHT22;9999;48.780;9.146;2022-12-07T11:35:21;4.60;99.90
7512;DHT22;9999;48.780;9.146;2022-12-07T11:37:54;4.70;99.90
7512;DHT22;9999;48.780;9.146;2022-12-07T11:40:26;4.70;99.90
7512;DHT22;9999;48.780;9.146;2022-12-07T11:42:59;4.60;99.90
7512;DHT22;9999;48.780;9.146;2022-12-07T11:45:27;4.60;99.90
7512;DHT22;9999;48.780;9.146;2022-12-07T11:47:59;4.60;99.90
7512;DHT22;9999;48.780;9.146;2022-12-07T11:50:33;4.60;99.90
7512;DHT22;9999;48.780;9.146;2022-12-07T11:53:03;4.70;99.90
7512;DHT22;9999;48.780;9.146;2022-12-07T11:55:41;4.70;99.90
7512;DHT22;9999;48.780;9.146;2022-12-07T11:58:20;4.60;99.90
7512;DHT22;9999;48.780;9.146;2022-12-07T12:00:49;4.70;99.90
7512;DHT22;9999;48.780;9.146;2022-12-07T12:03:24;4.70;99.90
7512;DHT22;9999;48.780;9.146;2022-12-07T12:05:57;4.70;99.90
7512;DHT22;9999;48.780;9.146;2022-12-07T12:08:28;4.70;99.90
7512;DHT22;9999;48.780;9.146;2022-12-07T12:11:03;4.60;99.90
7512;DHT22;9999;48.780;9.146;2022-12-07T12:14:05;4.50;99.90
7512;DHT22;9999;48.780;9.146;2022-12-07T12:16:50;4.50;99.90
7512;DHT22;9999;48.780;9.146;2022-12-07T12:19:32;4.50;99.90
7512;DHT22;9999;48.780;9.146;2022-12-07T12:22:07;4.50;99.90
7512;DHT22;9999;48.780;9.146;2022-12-07T12:24:38;4.40;99.90
7512;DHT22;9999;48.780;9.146;2022-12-07T12:27:09;4.40;99.90
7512;DHT22;9999;48.780;9.146;2022-12-07T12:29:38;4.40;99.90
7512;DHT22;9999;48.780;9.146;2022-12-07T12:32:12;4.30;99.90
7512;DHT22;9999;48.780;9.146;2022-12-07T12:34:41;4.30;99.90
7512;DHT22;9999;48.780;9.146;2022-12-07T12:37:42;4.30;99.90
7512;DHT22;9999;48.780;9.146;2022-12-07T12:40:40;4.30;99.90
7512;DHT22;9999;48.780;9.146;2022-12-07T12:43:41;4.30;99.90
7512;DHT22;9999;48.780;9.146;2022-12-07T12:49:34;4.40;99.90
7512;DHT22;9999;48.780;9.146;2022-12-07T12:55:15;4.40;99.90
7512;DHT22;9999;48.780;9.146;2022-12-07T12:57:44;4.40;99.90
7512;DHT22;9999;48.780;9.146;2022-12-07T13:00:16;4.50;99.90
7512;DHT22;9999;48.780;9.146;2022-12-07T13:02:48;4.50;99.90
7512;DHT22;9999;48.780;9.146;2022-12-07T13:05:19;4.40;99.90
7512;DHT22;9999;48.780;9.146;2022-12-07T13:07:58;4.40;99.90
7512;DHT22;9999;48.780;9.146;2022-12-07T13:10:37;4.50;99.90
7512;DHT22;9999;48.780;9.146;2022-12-07T13:13:28;4.40;99.90
7512;DHT22;9999;48.780;9.146;2022-12-07T13:16:38;4.50;99.90
7512;DHT22;9999;48.780;9.146;2022-12-07T13:22:34;4.50;99.90
7512;DHT22;9999;48.780;9.146;2022-12-07T13:25:07;4.50;99.90
7512;DHT22;9999;48.780;9.146;2022-12-07T13:27:37;4.50;99.90
7512;DHT22;9999;48.780;9.146;2022-12-07T13:30:13;4.60;99.90
7512;DHT22;9999;48.780;9.146;2022-12-07T13:32:40;4.50;99.90
7512;DHT22;9999;48.780;9.146;2022-12-07T13:35:29;4.50;99.90
7512;DHT22;9999;48.780;9.146;2022-12-07T13:37:56;4.50;99.90
7512;DHT22;9999;48.780;9.146;2022-12-07T13:40:23;4.50;99.90
7512;DHT22;9999;48.780;9.146;2022-12-07T13:42:59;4.50;99.90
7512;DHT22;9999;48.780;9.146;2022-12-07T13:45:28;4.50;99.90
7512;DHT22;9999;48.780;9.146;2022-12-07T13:48:14;4.50;99.90
7512;DHT22;9999;48.780;9.146;2022-12-07T13:50:42;4.50;99.90
7512;DHT22;9999;48.780;9.146;2022-12-07T13:53:12;4.60;99.90
7512;DHT22;9999;48.780;9.146;2022-12-07T13:55:44;4.50;99.90
7512;DHT22;9999;48.780;9.146;2022-12-07T13:58:13;4.50;99.90
7512;DHT22;9999;48.780;9.146;2022-12-07T14:00:41;4.50;99.90
7512;DHT22;9999;48.780;9.146;2022-12-07T14:03:29;4.50;99.90
7512;DHT22;9999;48.780;9.146;2022-12-07T14:06:23;4.60;99.90
7512;DHT22;9999;48.780;9.146;2022-12-07T14:09:08;4.50;99.90
7512;DHT22;9999;48.780;9.146;2022-12-07T14:11:35;4.50;99.90
7512;DHT22;9999;48.780;9.146;2022-12-07T14:14:05;4.50;99.90
7512;DHT22;9999;48.780;9.146;2022-12-07T14:16:33;4.40;99.90
7512;DHT22;9999;48.780;9.146;2022-12-07T14:19:03;4.50;99.90
7512;DHT22;9999;48.780;9.146;2022-12-07T14:21:31;4.50;99.90
7512;DHT22;9999;48.780;9.146;2022-12-07T14:26:51;4.30;99.90
7512;DHT22;9999;48.780;9.146;2022-12-07T14:29:30;4.20;99.90
7512;DHT22;9999;48.780;9.146;2022-12-07T14:32:04;4.20;99.90
7512;DHT22;9999;48.780;9.146;2022-12-07T14:34:37;4.30;99.90
7512;DHT22;9999;48.780;9.146;2022-12-07T14:37:06;4.30;99.90
7512;DHT22;9999;48.780;9.146;2022-12-07T14:39:34;4.40;99.90
7512;DHT22;9999;48.780;9.146;2022-12-07T14:42:00;4.50;99.90
7512;DHT22;9999;48.780;9.146;2022-12-07T14:44:29;4.40;99.90
7512;DHT22;9999;48.780;9.146;2022-12-07T14:46:55;4.40;99.90
7512;DHT22;9999;48.780;9.146;2022-12-07T14:49:22;4.30;99.90
7512;DHT22;9999;48.780;9.146;2022-12-07T14:51:49;4.40;99.90
7512;DHT22;9999;48.780;9.146;2022-12-07T14:54:19;4.40;99.90
7512;DHT22;9999;48.780;9.146;2022-12-07T14:56:46;4.30;99.90
7512;DHT22;9999;48.780;9.146;2022-12-07T14:59:15;4.40;99.90
7512;DHT22;9999;48.780;9.146;2022-12-07T15:01:43;4.40;99.90
7512;DHT22;9999;48.780;9.146;2022-12-07T15:04:10;4.30;99.90
7512;DHT22;9999;48.780;9.146;2022-12-07T15:06:37;4.30;99.90
7512;DHT22;9999;48.780;9.146;2022-12-07T15:09:05;4.30;99.90
7512;DHT22;9999;48.780;9.146;2022-12-07T15:11:32;4.40;99.90
7512;DHT22;9999;48.780;9.146;2022-12-07T15:13:59;4.40;99.90
7512;DHT22;9999;48.780;9.146;2022-12-07T15:16:37;4.30;99.90
7512;DHT22;9999;48.780;9.146;2022-12-07T15:19:09;4.10;99.90
7512;DHT22;9999;48.780;9.146;2022-12-07T15:21:37;4.00;99.90
7512;DHT22;9999;48.780;9.146;2022-12-07T15:24:04;4.10;99.90
7512;DHT22;9999;48.780;9.146;2022-12-07T15:26:31;4.10;99.90
7512;DHT22;9999;48.780;9.146;2022-12-07T15:28:58;4.10;99.90
7512;DHT22;9999;48.780;9.146;2022-12-07T15:31:24;4.10;99.90
7512;DHT22;9999;48.780;9.146;2022-12-07T15:33:51;4.10;99.90
7512;DHT22;9999;48.780;9.146;2022-12-07T15:36:21;4.00;99.90
7512;DHT22;9999;48.780;9.146;2022-12-07T15:38:48;4.00;99.90
7512;DHT22;9999;48.780;9.146;2022-12-07T15:41:16;4.10;99.90
7512;DHT22;9999;48.780;9.146;2022-12-07T15:43:44;4.10;99.90
7512;DHT22;9999;48.780;9.146;2022-12-07T15:46:29;4.00;99.90
7512;DHT22;9999;48.780;9.146;2022-12-07T15:48:57;4.00;99.90
7512;DHT22;9999;48.780;9.146;2022-12-07T15:51:25;3.90;99.90
7512;DHT22;9999;48.780;9.146;2022-12-07T15:53:53;3.80;99.90
7512;DHT22;9999;48.780;9.146;2022-12-07T15:56:20;3.80;99.90
7512;DHT22;9999;48.780;9.146;2022-12-07T15:58:47;3.70;99.90
7512;DHT22;9999;48.780;9.146;2022-12-07T16:01:16;3.70;99.90
7512;DHT22;9999;48.780;9.146;2022-12-07T16:03:45;3.70;99.90
7512;DHT22;9999;48.780;9.146;2022-12-07T16:06:14;3.70;99.90
7512;DHT22;9999;48.780;9.146;2022-12-07T16:08:43;3.70;99.90
7512;DHT22;9999;48.780;9.146;2022-12-07T16:11:10;3.80;99.90
7512;DHT22;9999;48.780;9.146;2022-12-07T16:13:37;3.70;99.90
7512;DHT22;9999;48.780;9.146;2022-12-07T16:16:05;3.60;99.90
7512;DHT22;9999;48.780;9.146;2022-12-07T16:18:33;3.60;99.90
7512;DHT22;9999;48.780;9.146;2022-12-07T16:21:00;3.70;99.90
7512;DHT22;9999;48.780;9.146;2022-12-07T16:23:27;3.60;99.90
7512;DHT22;9999;48.780;9.146;2022-12-07T16:26:00;3.70;99.90
7512;DHT22;9999;48.780;9.146;2022-12-07T16:28:29;3.80;99.90
7512;DHT22;9999;48.780;9.146;2022-12-07T16:31:00;3.70;99.90
7512;DHT22;9999;48.780;9.146;2022-12-07T16:33:27;3.60;99.90
7512;DHT22;9999;48.780;9.146;2022-12-07T16:35:54;3.70;99.90
7512;DHT22;9999;48.780;9.146;2022-12-07T16:38:21;3.60;99.90
7512;DHT22;9999;48.780;9.146;2022-12-07T16:40:47;3.60;99.90
7512;DHT22;9999;48.780;9.146;2022-12-07T16:43:16;3.50;99.90
7512;DHT22;9999;48.780;9.146;2022-12-07T16:45:42;3.50;99.90
7512;DHT22;9999;48.780;9.146;2022-12-07T16:48:09;3.40;99.90
7512;DHT22;9999;48.780;9.146;2022-12-07T16:50:39;3.40;99.90
7512;DHT22;9999;48.780;9.146;2022-12-07T16:53:06;3.30;99.90
7512;DHT22;9999;48.780;9.146;2022-12-07T16:55:35;3.30;99.90
7512;DHT22;9999;48.780;9.146;2022-12-07T16:58:02;3.30;99.90
7512;DHT22;9999;48.780;9.146;2022-12-07T17:00:31;3.30;99.90